createdAt,value
2024-01-07T00:00:18.589Z,20.02
2024-01-07T00:03:22.610Z,18.63
2024-01-07T00:06:26.864Z,21.30
2024-01-07T00:09:30.559Z,30.27
2024-01-07T00:12:34.603Z,10.60
2024-01-07T00:15:38.556Z,21.40
2024-01-07T00:18:42.789Z,8.53
2024-01-07T00:21:46.635Z,17.90
2024-01-07T00:24:50.845Z,7.65
2024-01-07T00:27:57.118Z,14.45
2024-01-07T00:31:01.225Z,17.88
2024-01-07T00:34:05.138Z,24.52
2024-01-07T00:37:09.348Z,57.15
2024-01-07T00:40:13.385Z,16.03
2024-01-07T00:43:17.567Z,22.33
2024-01-07T00:46:21.266Z,12.95
2024-01-07T00:49:24.836Z,17.90
2024-01-07T00:52:28.468Z,12.05
2024-01-07T00:55:32.698Z,5.35
2024-01-07T00:58:38.367Z,10.02
2024-01-07T01:01:42.701Z,12.07
2024-01-07T01:04:46.606Z,16.08
2024-01-07T01:07:50.741Z,11.10
2024-01-07T01:10:54.296Z,18.20
2024-01-07T01:13:58.804Z,11.88
2024-01-07T01:17:02.520Z,19.27
2024-01-07T01:20:05.860Z,14.07
2024-01-07T01:23:09.829Z,19.75
2024-01-07T01:26:13.798Z,21.92
2024-01-07T01:29:17.481Z,9.18
2024-01-07T01:32:20.424Z,17.63
2024-01-07T01:35:24.528Z,13.52
2024-01-07T01:38:27.658Z,13.70
2024-01-07T01:41:31.663Z,17.77
2024-01-07T01:44:35.999Z,14.30
2024-01-07T01:47:39.744Z,25.20
2024-01-07T01:50:43.166Z,16.20
2024-01-07T01:53:48.078Z,16.65
2024-01-07T01:56:51.461Z,19.27
2024-01-07T01:59:55.717Z,8.95
2024-01-07T02:02:59.486Z,22.40
2024-01-07T02:06:03.728Z,17.52
2024-01-07T02:09:07.362Z,19.05
2024-01-07T02:12:13.523Z,14.00
2024-01-07T02:15:17.158Z,10.73
2024-01-07T02:18:21.538Z,14.57
2024-01-07T02:21:24.843Z,18.97
2024-01-07T02:24:28.930Z,15.35
2024-01-07T02:27:31.930Z,4.38
2024-01-07T02:30:35.181Z,14.93
2024-01-07T02:33:39.465Z,19.83
2024-01-07T02:36:43.949Z,18.17
2024-01-07T02:39:53.263Z,12.27
2024-01-07T02:43:04.659Z,16.80
2024-01-07T02:46:09.621Z,21.85
2024-01-07T02:49:15.504Z,16.30
2024-01-07T02:52:19.214Z,13.10
2024-01-07T02:55:23.276Z,24.13
2024-01-07T02:58:27.149Z,21.75
2024-01-07T03:01:30.691Z,16.17
2024-01-07T03:04:34.587Z,21.88
2024-01-07T03:07:40.332Z,18.75
2024-01-07T03:10:43.386Z,17.10
2024-01-07T03:13:47.022Z,22.10
2024-01-07T03:16:50.944Z,12.82
2024-01-07T03:19:54.483Z,17.17
2024-01-07T03:23:22.229Z,13.30
2024-01-07T03:26:25.822Z,12.93
2024-01-07T03:29:29.055Z,11.85
2024-01-07T03:32:32.951Z,9.32
2024-01-07T03:35:36.664Z,7.80
2024-01-07T03:38:41.315Z,12.80
2024-01-07T03:41:44.894Z,10.48
2024-01-07T03:44:48.500Z,11.03
2024-01-07T03:47:52.223Z,14.57
2024-01-07T03:50:58.560Z,13.18
2024-01-07T03:54:01.458Z,10.80
2024-01-07T03:57:04.581Z,6.88
2024-01-07T04:00:08.192Z,10.02
2024-01-07T04:03:11.900Z,12.25
2024-01-07T04:06:15.621Z,27.95
2024-01-07T04:09:19.839Z,6.75
2024-01-07T04:12:22.727Z,8.95
2024-01-07T04:15:26.891Z,12.63
2024-01-07T04:18:30.786Z,14.88
2024-01-07T04:21:34.259Z,17.15
2024-01-07T04:24:38.144Z,7.93
2024-01-07T04:27:42.352Z,9.32
2024-01-07T04:30:46.181Z,22.42
2024-01-07T04:33:50.420Z,12.68
2024-01-07T04:36:54.209Z,4.60
2024-01-07T04:39:58.805Z,12.00
2024-01-07T04:43:02.899Z,12.57
2024-01-07T04:46:07.393Z,15.20
2024-01-07T04:49:11.193Z,9.65
2024-01-07T04:52:15.286Z,4.38
2024-01-07T04:55:20.000Z,13.33
2024-01-07T04:58:48.578Z,16.27
2024-01-07T05:01:51.641Z,7.72
2024-01-07T05:04:55.758Z,5.03
2024-01-07T05:08:00.884Z,6.55
2024-01-07T05:11:03.966Z,12.52
2024-01-07T05:14:07.253Z,12.32
2024-01-07T05:17:12.027Z,9.20
2024-01-07T05:20:17.415Z,7.82
2024-01-07T05:23:21.218Z,6.07
2024-01-07T05:26:24.612Z,2.93
2024-01-07T05:29:29.846Z,7.18
2024-01-07T05:32:33.946Z,5.50
2024-01-07T05:35:37.736Z,3.30
2024-01-07T05:38:43.125Z,6.88
2024-01-07T05:41:46.579Z,6.00
2024-01-07T05:44:50.074Z,9.27
2024-01-07T05:47:53.753Z,5.53
2024-01-07T05:50:56.983Z,4.55
2024-01-07T05:54:00.090Z,16.98
2024-01-07T05:57:07.758Z,6.83
2024-01-07T06:00:13.013Z,9.35
2024-01-07T06:03:16.786Z,5.68
2024-01-07T06:06:20.787Z,11.13
2024-01-07T06:09:37.714Z,4.20
2024-01-07T06:12:40.791Z,14.18
2024-01-07T06:15:43.955Z,12.13
2024-01-07T06:18:47.346Z,5.63
2024-01-07T06:21:51.010Z,5.72
2024-01-07T06:24:54.693Z,6.22
2024-01-07T06:27:58.912Z,5.73
2024-01-07T06:31:05.780Z,2.22
2024-01-07T06:34:09.737Z,10.77
2024-01-07T06:37:14.037Z,11.13
2024-01-07T06:40:17.487Z,12.82
2024-01-07T06:43:21.151Z,5.68
2024-01-07T06:46:24.286Z,4.70
2024-01-07T06:49:28.037Z,12.87
2024-01-07T06:52:31.438Z,7.78
2024-01-07T06:55:34.904Z,5.32
2024-01-07T06:58:38.774Z,5.73
2024-01-07T07:01:42.522Z,10.20
2024-01-07T07:04:51.597Z,6.88
2024-01-07T07:07:55.905Z,18.05
2024-01-07T07:11:13.706Z,11.05
2024-01-07T07:14:17.633Z,9.65
2024-01-07T07:17:24.375Z,18.70
2024-01-07T07:20:28.621Z,19.30
2024-01-07T07:23:33.573Z,16.30
2024-01-07T07:26:42.593Z,16.00
2024-01-07T07:29:46.406Z,12.07
2024-01-07T07:32:59.006Z,18.90
2024-01-07T07:36:03.671Z,13.75
2024-01-07T07:39:06.818Z,22.33
2024-01-07T07:42:12.278Z,25.25
2024-01-07T07:45:16.197Z,16.35
2024-01-07T07:48:22.896Z,12.65
2024-01-07T07:51:26.785Z,17.90
2024-01-07T07:58:02.581Z,13.57
2024-01-07T08:01:17.536Z,14.73
2024-01-07T08:04:46.356Z,17.60
2024-01-07T08:07:49.897Z,13.27
2024-01-07T08:10:53.757Z,19.33
2024-01-07T08:13:57.755Z,24.88
2024-01-07T08:17:06.339Z,20.25
2024-01-07T08:20:11.042Z,11.13
2024-01-07T08:23:14.878Z,16.70
2024-01-07T08:26:22.592Z,16.52
2024-01-07T08:29:26.234Z,10.90
2024-01-07T08:32:30.320Z,17.03
2024-01-07T08:35:33.515Z,24.08
2024-01-07T08:38:37.682Z,18.08
2024-01-07T08:41:40.664Z,15.52
2024-01-07T08:44:44.669Z,26.20
2024-01-07T08:47:48.928Z,21.52
2024-01-07T08:50:52.709Z,29.02
2024-01-07T08:53:57.492Z,15.63
2024-01-07T08:57:01.280Z,21.00
2024-01-07T09:00:06.399Z,12.55
2024-01-07T09:03:11.718Z,25.27
2024-01-07T09:06:15.571Z,15.77
2024-01-07T09:09:18.938Z,22.42
2024-01-07T09:12:21.966Z,21.85
2024-01-07T09:15:25.264Z,18.45
2024-01-07T09:18:28.425Z,14.50
2024-01-07T09:21:32.204Z,8.18
2024-01-07T09:25:00.137Z,14.10
2024-01-07T09:28:07.110Z,25.05
2024-01-07T09:31:11.077Z,18.42
2024-01-07T09:34:14.284Z,21.90
2024-01-07T09:37:18.763Z,24.92
2024-01-07T09:40:21.802Z,40.17
2024-01-07T09:43:27.935Z,35.20
2024-01-07T09:46:39.630Z,27.65
2024-01-07T09:49:44.952Z,54.22
2024-01-07T09:53:03.940Z,31.70
2024-01-07T09:56:27.160Z,43.80
2024-01-07T09:59:32.363Z,44.72
2024-01-07T10:02:37.118Z,34.53
2024-01-07T10:05:50.271Z,43.92
2024-01-07T10:08:53.964Z,25.92
2024-01-07T10:15:51.005Z,24.60
2024-01-07T10:18:55.336Z,20.35
2024-01-07T10:22:03.013Z,26.60
2024-01-07T10:25:08.262Z,43.07
2024-01-07T10:28:13.202Z,45.17
2024-01-07T10:31:16.992Z,44.67
2024-01-07T10:34:23.116Z,25.53
2024-01-07T10:37:27.998Z,21.42
2024-01-07T10:40:32.780Z,27.85
2024-01-07T10:43:38.149Z,25.70
2024-01-07T10:46:42.133Z,21.92
2024-01-07T10:49:49.324Z,25.92
2024-01-07T10:52:59.998Z,17.33
2024-01-07T10:56:10.314Z,4.20
2024-01-07T10:59:13.322Z,7.20
2024-01-07T11:02:17.646Z,13.18
2024-01-07T11:05:49.706Z,19.70
2024-01-07T11:09:00.482Z,15.50
2024-01-07T11:12:06.189Z,24.95
2024-01-07T11:15:10.502Z,11.35
2024-01-07T11:18:22.064Z,21.15
2024-01-07T11:21:28.390Z,31.77
2024-01-07T11:24:40.949Z,27.88
2024-01-07T11:27:45.133Z,13.10
2024-01-07T11:30:51.423Z,30.65
2024-01-07T11:33:57.190Z,26.98
2024-01-07T11:37:01.002Z,25.43
2024-01-07T11:40:10.367Z,41.50
2024-01-07T11:43:13.868Z,34.55
2024-01-07T11:46:17.979Z,23.88
2024-01-07T11:49:21.697Z,27.35
2024-01-07T11:52:25.209Z,32.95
2024-01-07T11:55:29.626Z,29.48
2024-01-07T11:58:33.766Z,26.53
2024-01-07T12:01:36.908Z,29.65
2024-01-07T12:04:40.090Z,28.75
2024-01-07T12:07:43.995Z,23.30
2024-01-07T12:10:48.405Z,33.05
2024-01-07T12:13:52.382Z,28.63
2024-01-07T12:16:57.919Z,26.13
2024-01-07T12:20:02.618Z,29.90
2024-01-07T12:23:12.700Z,22.92
2024-01-07T12:26:15.950Z,33.17
2024-01-07T12:29:20.410Z,33.17
2024-01-07T12:32:23.731Z,37.70
2024-01-07T12:35:29.396Z,40.95
2024-01-07T12:38:32.378Z,36.20
2024-01-07T12:41:36.860Z,39.80
2024-01-07T12:44:40.627Z,29.80
2024-01-07T12:47:44.720Z,36.47
2024-01-07T12:50:48.596Z,53.03
2024-01-07T12:53:52.759Z,42.67
2024-01-07T12:56:56.464Z,36.63
2024-01-07T13:00:00.780Z,61.67
2024-01-07T13:03:06.122Z,61.65
2024-01-07T13:06:10.553Z,67.40
2024-01-07T13:09:14.332Z,51.70
2024-01-07T13:12:18.317Z,64.65
2024-01-07T13:15:24.991Z,46.70
2024-01-07T13:18:28.989Z,60.28
2024-01-07T13:21:33.460Z,37.83
2024-01-07T13:24:39.768Z,66.30
2024-01-07T13:27:46.392Z,61.17
2024-01-07T13:30:50.125Z,67.83
2024-01-07T13:33:54.052Z,68.00
2024-01-07T13:36:58.213Z,59.67
2024-01-07T13:40:02.914Z,62.83
2024-01-07T13:43:09.634Z,53.55
2024-01-07T13:46:13.688Z,30.13
2024-01-07T13:49:17.921Z,55.45
2024-01-07T13:52:21.797Z,57.60
2024-01-07T13:55:26.104Z,35.83
2024-01-07T13:58:30.190Z,52.58
2024-01-07T14:01:34.550Z,55.40
2024-01-07T14:04:38.505Z,68.60
2024-01-07T14:07:41.848Z,57.28
2024-01-07T14:10:46.327Z,42.53
2024-01-07T14:13:50.028Z,37.80
2024-01-07T14:16:54.046Z,38.25
2024-01-07T14:19:57.075Z,40.28
2024-01-07T14:23:01.043Z,32.53
2024-01-07T14:26:05.246Z,57.38
2024-01-07T14:29:16.154Z,31.50
2024-01-07T14:32:22.512Z,36.70
2024-01-07T14:35:30.030Z,42.03
2024-01-07T14:38:35.199Z,35.42
2024-01-07T14:41:38.292Z,18.10
2024-01-07T14:44:48.067Z,40.63
2024-01-07T14:47:55.384Z,23.80
2024-01-07T14:50:58.994Z,57.83
2024-01-07T14:54:03.003Z,36.13
2024-01-07T14:57:06.293Z,18.05
2024-01-07T15:00:10.540Z,25.30
2024-01-07T15:03:13.618Z,45.33
2024-01-07T15:06:19.309Z,42.20
2024-01-07T15:09:23.004Z,35.70
2024-01-07T15:12:26.960Z,24.87
2024-01-07T15:15:31.579Z,29.60
2024-01-07T15:18:38.552Z,72.35
2024-01-07T15:21:42.762Z,68.10
2024-01-07T15:24:50.033Z,60.63
2024-01-07T15:27:53.952Z,47.85
2024-01-07T15:30:58.461Z,36.97
2024-01-07T15:34:03.586Z,37.87
2024-01-07T15:37:07.902Z,24.70
2024-01-07T15:40:11.802Z,48.90
2024-01-07T15:43:15.420Z,41.03
2024-01-07T15:46:42.941Z,41.58
2024-01-07T15:49:46.120Z,60.15
2024-01-07T15:52:51.015Z,65.72
2024-01-07T15:55:55.874Z,87.90
2024-01-07T15:58:59.206Z,39.17
2024-01-07T16:02:03.456Z,93.65
2024-01-07T16:05:07.961Z,108.67
2024-01-07T16:08:14.309Z,109.55
2024-01-07T16:11:19.638Z,126.53
2024-01-07T16:14:26.428Z,95.97
2024-01-07T16:17:29.807Z,79.55
2024-01-07T16:20:33.843Z,105.43
2024-01-07T16:23:38.849Z,69.05
2024-01-07T16:26:45.315Z,74.53
2024-01-07T16:29:48.985Z,49.95
2024-01-07T16:32:52.651Z,84.13
2024-01-07T16:35:56.811Z,41.83
2024-01-07T16:39:02.749Z,118.78
2024-01-07T16:42:06.968Z,75.50
2024-01-07T16:45:10.629Z,105.73
2024-01-07T16:50:13.146Z,65.18
2024-01-07T16:51:41.911Z,67.53
2024-01-07T16:54:48.509Z,78.75
2024-01-07T16:57:52.326Z,52.80
2024-01-07T17:01:01.165Z,61.92
2024-01-07T17:04:04.303Z,61.50
2024-01-07T17:07:08.397Z,64.87
2024-01-07T17:10:11.657Z,63.65
2024-01-07T17:13:16.039Z,55.53
2024-01-07T17:16:19.030Z,64.70
2024-01-07T17:19:25.450Z,57.97
2024-01-07T17:22:29.135Z,65.80
2024-01-07T17:25:33.404Z,43.03
2024-01-07T17:28:37.364Z,36.67
2024-01-07T17:31:41.038Z,42.28
2024-01-07T17:34:44.191Z,52.33
2024-01-07T17:37:48.073Z,36.67
2024-01-07T17:40:51.818Z,30.55
2024-01-07T17:43:55.588Z,41.58
2024-01-07T17:46:59.384Z,48.47
2024-01-07T17:50:26.076Z,48.72
2024-01-07T17:53:29.818Z,48.50
2024-01-07T17:56:35.428Z,42.72
2024-01-07T17:59:40.797Z,47.50
2024-01-07T18:03:00.402Z,25.02
2024-01-07T18:06:05.715Z,42.03
2024-01-07T18:09:09.504Z,57.97
2024-01-07T18:12:15.811Z,36.40
2024-01-07T18:15:19.549Z,39.60
2024-01-07T18:18:25.531Z,33.93
2024-01-07T18:21:32.637Z,36.30
2024-01-07T18:24:36.707Z,28.60
2024-01-07T18:27:40.451Z,44.10
2024-01-07T18:30:45.051Z,63.53
2024-01-07T18:33:48.413Z,53.85
2024-01-07T18:36:52.253Z,52.55
2024-01-07T18:39:55.171Z,59.67
2024-01-07T18:43:00.503Z,41.05
2024-01-07T18:46:04.200Z,35.53
2024-01-07T18:49:07.371Z,31.13
2024-01-07T18:52:12.666Z,36.28
2024-01-07T18:55:16.435Z,50.03
2024-01-07T18:58:19.902Z,21.50
2024-01-07T19:01:23.784Z,13.80
2024-01-07T19:04:28.576Z,31.30
2024-01-07T19:07:32.428Z,24.55
2024-01-07T19:10:36.398Z,26.10
2024-01-07T19:13:39.301Z,13.98
2024-01-07T19:16:43.275Z,29.08
2024-01-07T19:19:46.653Z,18.03
2024-01-07T19:22:49.601Z,16.02
2024-01-07T19:25:53.408Z,20.48
2024-01-07T19:28:57.844Z,8.07
2024-01-07T19:32:01.751Z,30.35
2024-01-07T19:35:07.778Z,28.48
2024-01-07T19:38:11.688Z,19.92
2024-01-07T19:41:25.202Z,13.40
2024-01-07T19:44:28.975Z,31.25
2024-01-07T19:47:33.406Z,33.92
2024-01-07T19:50:37.325Z,23.63
2024-01-07T19:53:45.226Z,22.98
2024-01-07T19:57:09.171Z,31.45
2024-01-07T20:00:18.318Z,32.92
2024-01-07T20:03:21.429Z,17.42
2024-01-07T20:06:25.780Z,17.25
2024-01-07T20:09:29.314Z,22.17
2024-01-07T20:12:33.864Z,32.43
2024-01-07T20:15:37.914Z,20.13
2024-01-07T20:18:41.588Z,17.48
2024-01-07T20:21:44.629Z,7.13
2024-01-07T20:24:48.358Z,14.05
2024-01-07T20:27:54.918Z,9.07
2024-01-07T20:30:58.427Z,7.60
2024-01-07T20:34:29.656Z,10.07
2024-01-07T20:37:33.803Z,9.40
2024-01-07T20:40:45.180Z,19.90
2024-01-07T20:43:51.685Z,21.97
2024-01-07T20:47:00.311Z,14.82
2024-01-07T20:50:10.223Z,14.07
2024-01-07T20:53:41.466Z,9.83
2024-01-07T20:56:50.598Z,15.23
2024-01-07T20:59:53.717Z,11.38
2024-01-07T21:02:57.621Z,27.45
2024-01-07T21:06:04.277Z,18.73
2024-01-07T21:09:19.073Z,23.45
2024-01-07T21:12:23.224Z,18.10
2024-01-07T21:15:30.096Z,38.00
2024-01-07T21:18:34.383Z,21.08
2024-01-07T21:21:38.393Z,16.45
2024-01-07T21:24:42.498Z,31.60
2024-01-07T21:27:46.089Z,27.30
2024-01-07T21:30:49.054Z,29.38
2024-01-07T21:33:52.183Z,34.38
2024-01-07T21:36:56.595Z,21.67
2024-01-07T21:39:59.585Z,57.80
2024-01-07T21:43:09.332Z,39.65
2024-01-07T21:46:12.671Z,37.50
2024-01-07T21:49:16.550Z,35.65
2024-01-07T21:52:27.557Z,26.23
2024-01-07T21:55:31.268Z,32.93
2024-01-07T21:58:35.323Z,18.77
2024-01-07T22:01:38.509Z,27.13
2024-01-07T22:04:42.019Z,27.27
2024-01-07T22:07:45.309Z,27.55
2024-01-07T22:10:48.963Z,29.83
2024-01-07T22:13:53.279Z,40.38
2024-01-07T22:16:56.387Z,26.53
2024-01-07T22:19:59.669Z,19.63
2024-01-07T22:23:03.102Z,27.08
2024-01-07T22:26:06.724Z,18.47
2024-01-07T22:29:12.076Z,36.00
2024-01-07T22:32:16.155Z,23.90
2024-01-07T22:35:19.415Z,23.30
2024-01-07T22:38:24.383Z,40.15
2024-01-07T22:41:27.458Z,51.20
2024-01-07T22:44:30.788Z,66.05
2024-01-07T22:47:34.221Z,32.50
2024-01-07T22:50:38.225Z,25.58
2024-01-07T22:53:41.413Z,39.70
2024-01-07T22:56:46.166Z,21.37
2024-01-07T22:59:50.163Z,36.72
2024-01-07T23:02:55.929Z,18.80
2024-01-07T23:05:59.529Z,26.73
2024-01-07T23:09:03.214Z,33.47
2024-01-07T23:12:06.417Z,49.83
2024-01-07T23:15:10.554Z,48.25
2024-01-07T23:18:14.217Z,35.23
2024-01-07T23:21:17.467Z,30.15
2024-01-07T23:24:21.224Z,53.80
2024-01-07T23:27:26.820Z,16.97
2024-01-07T23:30:29.820Z,27.75
2024-01-07T23:33:33.782Z,48.50
2024-01-07T23:36:37.884Z,62.75
2024-01-07T23:39:40.890Z,54.28
2024-01-07T23:42:44.429Z,28.02
2024-01-07T23:45:47.840Z,43.30
2024-01-07T23:48:51.688Z,41.13
2024-01-07T23:51:55.132Z,51.10
2024-01-07T23:54:58.134Z,43.58
2024-01-07T23:58:02.227Z,34.73
